createdAt,value
2018-02-20T00:00:31.520Z,-0.11
2018-02-20T00:02:59.909Z,-0.06
2018-02-20T00:05:28.327Z,-0.02
2018-02-20T00:07:56.726Z,0.01
2018-02-20T00:10:25.135Z,0.05
2018-02-20T00:12:53.530Z,0.07
2018-02-20T00:15:22.662Z,0.08
2018-02-20T00:17:51.049Z,0.07
2018-02-20T00:20:19.419Z,-0.01
2018-02-20T00:22:47.814Z,-0.06
2018-02-20T00:25:16.234Z,-0.15
2018-02-20T00:27:44.602Z,-0.12
2018-02-20T00:30:13.004Z,-0.13
2018-02-20T00:32:42.271Z,-0.09
2018-02-20T00:35:10.721Z,-0.14
2018-02-20T00:37:39.133Z,-0.27
2018-02-20T00:40:07.580Z,-0.31
2018-02-20T00:42:35.975Z,-0.33
2018-02-20T00:45:04.430Z,-0.31
2018-02-20T00:47:32.804Z,-0.29
2018-02-20T00:50:01.258Z,-0.33
2018-02-20T00:52:30.613Z,-0.41
2018-02-20T00:54:58.979Z,-0.40
2018-02-20T00:57:27.369Z,-0.34
2018-02-20T00:59:55.839Z,-0.34
2018-02-20T01:02:24.216Z,-0.25
2018-02-20T01:04:52.598Z,-0.18
2018-02-20T01:07:20.981Z,-0.19
2018-02-20T01:09:49.367Z,-0.17
2018-02-20T01:12:17.786Z,-0.18
2018-02-20T01:14:46.174Z,-0.18
2018-02-20T01:17:15.310Z,-0.19
2018-02-20T01:19:43.761Z,-0.20
2018-02-20T01:22:12.903Z,-0.15
2018-02-20T01:24:41.319Z,-0.15
2018-02-20T01:27:10.618Z,-0.12
2018-02-20T01:29:39.869Z,-0.03
2018-02-20T01:32:08.249Z,0.03
2018-02-20T01:34:36.623Z,0.04
2018-02-20T01:37:04.996Z,0.05
2018-02-20T01:39:33.382Z,0.06
2018-02-20T01:42:01.780Z,0.05
2018-02-20T01:44:30.222Z,0.02
2018-02-20T01:46:58.589Z,0.03
2018-02-20T01:49:26.972Z,0.03
2018-02-20T01:51:55.351Z,-0.01
2018-02-20T01:54:23.808Z,0.00
2018-02-20T01:56:52.959Z,0.03
2018-02-20T01:59:21.336Z,0.01
2018-02-20T02:01:49.786Z,0.04
2018-02-20T02:04:18.187Z,0.00
2018-02-20T02:06:46.586Z,0.02
2018-02-20T02:09:14.970Z,0.04
2018-02-20T02:11:43.414Z,0.02
2018-02-20T02:14:11.793Z,0.04
2018-02-20T02:16:40.202Z,0.03
2018-02-20T02:19:08.597Z,0.02
2018-02-20T02:21:36.991Z,-0.02
2018-02-20T02:24:06.160Z,-0.01
2018-02-20T02:26:34.544Z,-0.06
2018-02-20T02:29:02.923Z,-0.05
2018-02-20T02:31:31.397Z,-0.05
2018-02-20T02:33:59.792Z,-0.17
2018-02-20T02:36:28.225Z,-0.22
2018-02-20T02:38:56.592Z,-0.20
2018-02-20T02:41:24.986Z,-0.29
2018-02-20T02:43:53.408Z,-0.32
2018-02-20T02:46:21.792Z,-0.35
2018-02-20T02:48:50.949Z,-0.37
2018-02-20T02:51:19.342Z,-0.46
2018-02-20T02:53:47.740Z,-0.51
2018-02-20T02:56:16.189Z,-0.55
2018-02-20T02:58:44.662Z,-0.62
2018-02-20T03:01:13.135Z,-0.62
2018-02-20T03:03:41.510Z,-0.72
2018-02-20T03:06:09.898Z,-0.79
2018-02-20T03:08:38.287Z,-0.89
2018-02-20T03:11:06.680Z,-1.02
2018-02-20T03:13:35.100Z,-1.13
2018-02-20T03:16:04.248Z,-1.21
2018-02-20T03:18:32.666Z,-1.29
2018-02-20T03:21:01.810Z,-1.39
2018-02-20T03:23:30.275Z,-1.45
2018-02-20T03:25:58.665Z,-1.40
2018-02-20T03:28:27.041Z,-1.40
2018-02-20T03:30:55.445Z,-1.40
2018-02-20T03:33:23.865Z,-1.42
2018-02-20T03:35:53.025Z,-1.40
2018-02-20T03:38:21.448Z,-1.42
2018-02-20T03:40:49.851Z,-1.37
2018-02-20T03:43:18.212Z,-1.48
2018-02-20T03:45:46.615Z,-1.46
2018-02-20T03:48:15.015Z,-1.48
2018-02-20T03:50:43.419Z,-1.41
2018-02-20T03:53:12.657Z,-1.32
2018-02-20T03:55:41.101Z,-1.25
2018-02-20T03:58:09.483Z,-1.23
2018-02-20T04:00:38.633Z,-1.23
2018-02-20T04:03:07.104Z,-1.23
2018-02-20T04:05:35.563Z,-1.22
2018-02-20T04:08:03.941Z,-1.17
2018-02-20T04:10:32.338Z,-1.19
2018-02-20T04:13:00.748Z,-1.16
2018-02-20T04:15:29.146Z,-1.17
2018-02-20T04:17:57.582Z,-1.17
2018-02-20T04:20:25.990Z,-1.17
2018-02-20T04:22:54.392Z,-1.19
2018-02-20T04:25:23.544Z,-1.25
2018-02-20T04:27:51.939Z,-1.32
2018-02-20T04:30:21.133Z,-1.32
2018-02-20T04:32:49.524Z,-1.35
2018-02-20T04:35:17.913Z,-1.28
2018-02-20T04:37:46.308Z,-1.26
2018-02-20T04:40:14.734Z,-1.25
2018-02-20T04:42:43.135Z,-1.24
2018-02-20T04:45:11.548Z,-1.18
2018-02-20T04:47:40.770Z,-1.21
2018-02-20T04:50:09.144Z,-1.19
2018-02-20T04:52:37.525Z,-1.14
2018-02-20T04:55:05.924Z,-1.06
2018-02-20T04:57:34.322Z,-1.06
2018-02-20T05:00:02.704Z,-1.06
2018-02-20T05:02:31.102Z,-1.00
2018-02-20T05:05:00.240Z,-0.97
2018-02-20T05:07:28.638Z,-0.89
2018-02-20T05:09:57.009Z,-0.90
2018-02-20T05:12:25.420Z,-0.86
2018-02-20T05:14:53.803Z,-0.83
2018-02-20T05:17:22.250Z,-0.84
2018-02-20T05:19:50.724Z,-0.85
2018-02-20T05:22:19.108Z,-0.93
2018-02-20T05:24:48.342Z,-0.91
2018-02-20T05:27:16.759Z,-0.90
2018-02-20T05:29:45.150Z,-0.96
2018-02-20T05:32:13.524Z,-0.97
2018-02-20T05:34:41.987Z,-0.97
2018-02-20T05:37:10.428Z,-1.00
2018-02-20T05:39:38.826Z,-0.94
2018-02-20T05:42:07.972Z,-0.90
2018-02-20T05:44:36.442Z,-0.98
2018-02-20T05:47:04.820Z,-0.99
2018-02-20T05:49:33.416Z,-1.01
2018-02-20T05:52:01.790Z,-0.98
2018-02-20T05:54:30.206Z,-0.99
2018-02-20T05:56:58.640Z,-0.90
2018-02-20T05:59:27.009Z,-0.98
2018-02-20T06:01:55.400Z,-0.98
2018-02-20T06:04:23.781Z,-0.96
2018-02-20T06:06:52.191Z,-0.91
2018-02-20T06:09:20.594Z,-0.95
2018-02-20T06:11:48.966Z,-0.85
2018-02-20T06:14:17.403Z,-0.84
2018-02-20T06:16:45.778Z,-0.86
2018-02-20T06:19:14.145Z,-0.86
2018-02-20T06:21:42.569Z,-0.80
2018-02-20T06:24:10.974Z,-0.72
2018-02-20T06:26:40.112Z,-0.68
2018-02-20T06:29:08.518Z,-0.63
2018-02-20T06:31:36.923Z,-0.70
2018-02-20T06:34:05.311Z,-0.76
2018-02-20T06:36:34.468Z,-0.70
2018-02-20T06:39:02.874Z,-0.60
2018-02-20T06:41:31.254Z,-0.51
2018-02-20T06:44:00.401Z,-0.31
2018-02-20T06:46:28.781Z,-0.40
2018-02-20T06:48:57.154Z,-0.27
2018-02-20T06:51:25.591Z,-0.32
2018-02-20T06:53:54.796Z,-0.22
2018-02-20T06:56:23.137Z,-0.08
2018-02-20T06:58:51.564Z,-0.16
2018-02-20T07:01:19.946Z,-0.15
2018-02-20T07:03:48.334Z,-0.14
2018-02-20T07:06:16.742Z,-0.23
2018-02-20T07:08:45.106Z,-0.09
2018-02-20T07:11:13.506Z,-0.21
2018-02-20T07:13:41.906Z,-0.07
2018-02-20T07:16:10.317Z,-0.01
2018-02-20T07:18:38.708Z,0.10
2018-02-20T07:21:07.155Z,0.20
2018-02-20T07:23:36.299Z,0.57
2018-02-20T07:26:04.671Z,0.60
2018-02-20T07:28:33.055Z,0.39
2018-02-20T07:31:01.537Z,0.23
2018-02-20T07:33:29.905Z,0.50
2018-02-20T07:35:58.313Z,0.49
2018-02-20T07:38:27.501Z,0.50
2018-02-20T07:40:55.854Z,0.68
2018-02-20T07:43:24.237Z,0.60
2018-02-20T07:45:52.597Z,0.69
2018-02-20T07:48:20.992Z,0.56
2018-02-20T07:50:49.396Z,0.75
2018-02-20T07:53:17.784Z,0.56
2018-02-20T07:55:46.152Z,0.51
2018-02-20T07:58:14.584Z,0.25
2018-02-20T08:00:43.736Z,0.48
2018-02-20T08:03:12.238Z,0.64
2018-02-20T08:05:40.610Z,0.68
2018-02-20T08:08:09.014Z,0.57
2018-02-20T08:10:38.177Z,0.55
2018-02-20T08:13:06.539Z,0.50
2018-02-20T08:15:34.925Z,0.49
2018-02-20T08:18:03.289Z,0.62
2018-02-20T08:20:31.655Z,0.51
2018-02-20T08:23:00.071Z,0.38
2018-02-20T08:25:28.559Z,0.42
2018-02-20T08:27:56.937Z,0.46
2018-02-20T08:30:25.311Z,0.59
2018-02-20T08:32:53.701Z,0.58
2018-02-20T08:35:22.069Z,1.66
2018-02-20T08:37:50.457Z,1.12
2018-02-20T08:40:22.577Z,0.68
2018-02-20T08:42:50.979Z,0.88
2018-02-20T08:45:19.353Z,0.82
2018-02-20T08:47:47.758Z,0.71
2018-02-20T08:50:16.131Z,0.74
2018-02-20T08:52:44.510Z,0.79
2018-02-20T08:55:12.900Z,0.83
2018-02-20T08:57:42.031Z,0.97
2018-02-20T09:00:10.417Z,0.96
2018-02-20T09:02:38.816Z,1.06
2018-02-20T09:05:07.201Z,1.54
2018-02-20T09:07:35.577Z,1.79
2018-02-20T09:10:04.044Z,1.49
2018-02-20T09:12:32.417Z,1.41
2018-02-20T09:15:00.802Z,1.29
2018-02-20T09:17:29.173Z,1.49
2018-02-20T09:19:57.575Z,1.40
2018-02-20T09:22:25.964Z,1.56
2018-02-20T09:24:54.382Z,1.67
2018-02-20T09:27:22.764Z,2.73
2018-02-20T09:29:51.133Z,5.47
2018-02-20T09:32:20.300Z,6.39
2018-02-20T09:34:48.696Z,7.70
2018-02-20T09:37:17.069Z,7.53
2018-02-20T09:39:45.468Z,8.16
2018-02-20T09:42:13.842Z,8.13
2018-02-20T09:44:42.274Z,8.20
2018-02-20T09:47:10.642Z,9.40
2018-02-20T09:49:39.048Z,10.59
2018-02-20T09:52:07.413Z,10.55
2018-02-20T09:54:35.811Z,10.60
2018-02-20T09:57:04.197Z,9.23
2018-02-20T09:59:32.562Z,9.58
2018-02-20T10:02:01.747Z,9.23
2018-02-20T10:04:30.118Z,8.44
2018-02-20T10:06:58.513Z,8.26
2018-02-20T10:09:26.885Z,8.27
2018-02-20T10:11:55.270Z,6.04
2018-02-20T10:14:23.679Z,5.07
2018-02-20T10:16:52.818Z,4.88
2018-02-20T10:19:21.192Z,4.94
2018-02-20T10:21:49.609Z,4.61
2018-02-20T10:24:17.985Z,4.55
2018-02-20T10:26:46.377Z,4.43
2018-02-20T10:29:14.766Z,4.96
2018-02-20T10:31:43.909Z,4.43
2018-02-20T10:34:12.305Z,4.40
2018-02-20T10:36:40.718Z,4.35
2018-02-20T10:39:09.906Z,4.40
2018-02-20T10:41:38.290Z,4.39
2018-02-20T10:44:06.673Z,4.35
2018-02-20T10:46:35.857Z,4.15
2018-02-20T10:49:04.240Z,4.35
2018-02-20T10:51:32.638Z,4.50
2018-02-20T10:54:01.037Z,4.55
2018-02-20T10:56:29.433Z,4.62
2018-02-20T10:58:57.836Z,4.94
2018-02-20T11:01:26.217Z,5.55
2018-02-20T11:03:54.590Z,5.52
2018-02-20T11:06:22.987Z,5.32
2018-02-20T11:08:51.360Z,5.32
2018-02-20T11:11:19.776Z,5.10
2018-02-20T11:13:48.169Z,5.24
2018-02-20T11:16:16.529Z,5.35
2018-02-20T11:18:44.930Z,4.92
2018-02-20T11:21:13.317Z,4.51
2018-02-20T11:23:41.690Z,4.25
2018-02-20T11:26:10.082Z,4.13
2018-02-20T11:28:38.471Z,3.70
2018-02-20T11:31:06.873Z,3.84
2018-02-20T11:33:35.248Z,3.76
2018-02-20T11:36:03.649Z,3.72
2018-02-20T11:38:32.021Z,3.87
2018-02-20T11:41:01.204Z,3.96
2018-02-20T11:43:29.569Z,3.73
2018-02-20T11:45:57.980Z,4.07
2018-02-20T11:48:26.409Z,3.93
2018-02-20T11:50:55.550Z,4.20
2018-02-20T11:53:24.678Z,4.76
2018-02-20T11:55:53.087Z,4.92
2018-02-20T11:58:21.487Z,5.12
2018-02-20T12:00:49.876Z,5.61
2018-02-20T12:03:19.025Z,5.68
2018-02-20T12:05:47.408Z,5.93
2018-02-20T12:08:15.782Z,5.40
2018-02-20T12:10:44.199Z,5.40
2018-02-20T12:13:12.629Z,5.32
2018-02-20T12:15:41.011Z,5.10
2018-02-20T12:18:09.438Z,4.53
2018-02-20T12:20:37.813Z,4.46
2018-02-20T12:23:06.191Z,4.76
2018-02-20T12:25:34.601Z,4.72
2018-02-20T12:28:02.974Z,5.26
2018-02-20T12:30:31.381Z,4.90
2018-02-20T12:32:59.824Z,4.73
2018-02-20T12:35:28.246Z,4.51
2018-02-20T12:37:56.722Z,4.68
2018-02-20T12:40:25.128Z,4.45
2018-02-20T12:42:53.519Z,4.45
2018-02-20T12:45:21.903Z,4.72
2018-02-20T12:47:50.345Z,4.74
2018-02-20T12:50:18.773Z,4.66
2018-02-20T12:52:47.150Z,4.79
2018-02-20T12:55:15.538Z,4.72
2018-02-20T12:57:44.703Z,4.83
2018-02-20T13:00:13.138Z,5.33
2018-02-20T13:02:41.713Z,5.80
2018-02-20T13:05:10.122Z,5.73
2018-02-20T13:07:39.311Z,5.55
2018-02-20T13:10:07.766Z,5.27
2018-02-20T13:12:36.187Z,5.37
2018-02-20T13:15:04.558Z,5.46
2018-02-20T13:17:33.051Z,4.92
2018-02-20T13:20:01.430Z,4.97
2018-02-20T13:22:29.859Z,4.82
2018-02-20T13:24:58.289Z,4.97
2018-02-20T13:27:26.749Z,4.75
2018-02-20T13:29:55.225Z,4.85
2018-02-20T13:32:23.605Z,5.06
2018-02-20T13:34:52.033Z,5.24
2018-02-20T13:37:20.402Z,5.54
2018-02-20T13:39:48.793Z,5.36
2018-02-20T13:42:17.360Z,5.61
2018-02-20T13:44:45.838Z,5.50
2018-02-20T13:47:14.227Z,4.65
2018-02-20T13:49:42.754Z,4.26
2018-02-20T13:52:12.257Z,4.14
2018-02-20T13:54:40.670Z,3.84
2018-02-20T13:57:09.075Z,4.09
2018-02-20T13:59:37.453Z,4.67
2018-02-20T14:02:05.883Z,5.07
2018-02-20T14:04:34.283Z,5.19
2018-02-20T14:07:02.689Z,5.27
2018-02-20T14:09:31.103Z,5.18
2018-02-20T14:12:00.236Z,4.76
2018-02-20T14:14:28.642Z,4.38
2018-02-20T14:16:57.033Z,4.18
2018-02-20T14:19:25.661Z,4.18
2018-02-20T14:21:54.038Z,4.01
2018-02-20T14:24:22.435Z,4.18
2018-02-20T14:26:50.998Z,4.61
2018-02-20T14:29:19.425Z,4.52
2018-02-20T14:31:47.795Z,4.54
2018-02-20T14:34:16.210Z,4.58
2018-02-20T14:36:45.486Z,4.69
2018-02-20T14:39:13.907Z,4.74
2018-02-20T14:41:42.313Z,4.81
2018-02-20T14:44:10.690Z,4.55
2018-02-20T14:46:39.279Z,4.17
2018-02-20T14:49:07.809Z,4.07
2018-02-20T14:51:36.342Z,4.04
2018-02-20T14:54:04.802Z,3.93
2018-02-20T14:56:33.211Z,4.01
2018-02-20T14:59:01.598Z,4.07
2018-02-20T15:01:30.192Z,4.12
2018-02-20T15:03:58.598Z,4.82
2018-02-20T15:06:26.998Z,4.11
2018-02-20T15:08:55.426Z,4.11
2018-02-20T15:11:23.802Z,3.95
2018-02-20T15:13:52.665Z,3.77
2018-02-20T15:16:21.135Z,3.70
2018-02-20T15:18:49.525Z,3.72
2018-02-20T15:21:17.912Z,3.59
2018-02-20T15:23:46.312Z,3.54
2018-02-20T15:26:14.692Z,3.46
2018-02-20T15:28:43.074Z,3.35
2018-02-20T15:31:11.471Z,3.30
2018-02-20T15:33:39.918Z,3.23
2018-02-20T15:36:08.315Z,3.09
2018-02-20T15:38:36.691Z,3.04
2018-02-20T15:41:05.097Z,3.02
2018-02-20T15:43:33.569Z,3.05
2018-02-20T15:46:02.768Z,3.12
2018-02-20T15:48:31.158Z,3.03
2018-02-20T15:50:59.551Z,3.02
2018-02-20T15:53:27.965Z,3.01
2018-02-20T15:55:56.345Z,3.01
2018-02-20T15:58:24.746Z,2.93
2018-02-20T16:00:53.908Z,2.99
2018-02-20T16:03:22.301Z,2.89
2018-02-20T16:05:50.730Z,2.83
2018-02-20T16:08:19.103Z,2.77
2018-02-20T16:10:47.542Z,2.74
2018-02-20T16:13:16.040Z,2.70
2018-02-20T16:15:49.332Z,2.63
2018-02-20T16:18:18.534Z,2.52
2018-02-20T16:20:47.680Z,2.42
2018-02-20T16:23:16.087Z,2.50
2018-02-20T16:25:44.472Z,2.54
2018-02-20T16:28:12.852Z,2.51
2018-02-20T16:30:41.233Z,2.42
2018-02-20T16:33:09.668Z,2.31
2018-02-20T16:35:38.057Z,2.26
2018-02-20T16:38:06.422Z,2.29
2018-02-20T16:40:34.814Z,2.29
2018-02-20T16:43:03.194Z,2.27
2018-02-20T16:45:31.634Z,2.18
2018-02-20T16:48:00.027Z,2.26
2018-02-20T16:50:28.453Z,2.13
2018-02-20T16:52:56.836Z,1.99
2018-02-20T16:55:25.243Z,1.88
2018-02-20T16:57:54.414Z,1.80
2018-02-20T17:00:22.785Z,1.81
2018-02-20T17:02:51.375Z,1.75
2018-02-20T17:05:19.790Z,1.66
2018-02-20T17:07:48.157Z,1.61
2018-02-20T17:10:17.383Z,1.56
2018-02-20T17:12:45.759Z,1.54
2018-02-20T17:15:14.148Z,1.48
2018-02-20T17:17:42.544Z,1.45
2018-02-20T17:20:10.958Z,1.43
2018-02-20T17:22:39.330Z,1.37
2018-02-20T17:25:07.750Z,1.40
2018-02-20T17:27:36.180Z,1.39
2018-02-20T17:30:04.586Z,1.39
2018-02-20T17:32:33.767Z,1.43
2018-02-20T17:35:02.136Z,1.49
2018-02-20T17:37:30.540Z,1.50
2018-02-20T17:39:59.713Z,1.55
2018-02-20T17:42:28.109Z,1.57
2018-02-20T17:44:57.266Z,1.62
2018-02-20T17:47:26.410Z,1.77
2018-02-20T17:49:55.630Z,1.85
2018-02-20T17:52:24.019Z,1.89
2018-02-20T17:54:52.458Z,1.92
2018-02-20T17:57:21.606Z,1.91
2018-02-20T17:59:49.998Z,2.00
2018-02-20T18:02:18.409Z,1.96
2018-02-20T18:04:47.585Z,2.00
2018-02-20T18:07:15.987Z,1.99
2018-02-20T18:09:44.380Z,1.90
2018-02-20T18:12:12.779Z,1.91
2018-02-20T18:14:41.187Z,1.93
2018-02-20T18:17:09.565Z,1.84
2018-02-20T18:19:37.949Z,1.78
2018-02-20T18:22:06.334Z,1.73
2018-02-20T18:24:34.777Z,1.76
2018-02-20T18:27:03.221Z,1.71
2018-02-20T18:29:32.406Z,1.65
2018-02-20T18:32:00.868Z,1.61
2018-02-20T18:34:29.330Z,1.50
2018-02-20T18:36:57.872Z,1.45
2018-02-20T18:39:27.067Z,1.43
2018-02-20T18:41:56.253Z,1.32
2018-02-20T18:44:24.701Z,1.22
2018-02-20T18:46:53.124Z,1.20
2018-02-20T18:49:22.299Z,1.07
2018-02-20T18:51:50.690Z,1.00
2018-02-20T18:54:19.844Z,0.98
2018-02-20T18:56:48.243Z,0.93
2018-02-20T18:59:16.621Z,0.90
2018-02-20T19:01:45.034Z,0.79
2018-02-20T19:04:14.193Z,0.75
2018-02-20T19:06:42.602Z,0.69
2018-02-20T19:09:11.783Z,0.70
2018-02-20T19:11:40.156Z,0.66
2018-02-20T19:14:08.558Z,0.60
2018-02-20T19:16:37.744Z,0.57
2018-02-20T19:19:06.108Z,0.54
2018-02-20T19:21:34.545Z,0.51
2018-02-20T19:24:02.910Z,0.50
2018-02-20T19:26:31.338Z,0.45
2018-02-20T19:28:59.750Z,0.41
2018-02-20T19:31:28.922Z,0.37
2018-02-20T19:33:57.317Z,0.42
2018-02-20T19:36:26.466Z,0.35
2018-02-20T19:38:55.039Z,0.35
2018-02-20T19:41:23.464Z,0.34
2018-02-20T19:43:51.848Z,0.28
2018-02-20T19:46:20.213Z,0.31
2018-02-20T19:48:48.745Z,0.27
2018-02-20T19:51:17.106Z,0.31
2018-02-20T19:53:45.496Z,0.34
2018-02-20T19:56:13.854Z,0.27
2018-02-20T19:58:43.011Z,0.27
2018-02-20T20:01:11.400Z,0.32
2018-02-20T20:03:39.781Z,0.19
2018-02-20T20:06:08.180Z,0.14
2018-02-20T20:08:36.562Z,0.12
2018-02-20T20:11:05.799Z,0.19
2018-02-20T20:13:34.171Z,0.05
2018-02-20T20:16:02.548Z,0.04
2018-02-20T20:18:30.957Z,0.02
2018-02-20T20:20:59.376Z,-0.07
2018-02-20T20:23:28.546Z,-0.18
2018-02-20T20:25:56.943Z,-0.22
2018-02-20T20:28:25.340Z,-0.23
2018-02-20T20:30:53.765Z,-0.25
2018-02-20T20:33:22.196Z,-0.30
2018-02-20T20:35:51.375Z,-0.32
2018-02-20T20:38:19.800Z,-0.36
2018-02-20T20:40:48.180Z,-0.33
2018-02-20T20:43:16.552Z,-0.38
2018-02-20T20:45:44.971Z,-0.31
2018-02-20T20:48:13.341Z,-0.35
2018-02-20T20:50:41.738Z,-0.36
2018-02-20T20:53:10.121Z,-0.43
2018-02-20T20:55:39.387Z,-0.45
2018-02-20T20:58:07.788Z,-0.51
2018-02-20T21:00:36.155Z,-0.49
2018-02-20T21:03:04.557Z,-0.43
2018-02-20T21:05:32.960Z,-0.49
2018-02-20T21:08:02.099Z,-0.51
2018-02-20T21:10:30.621Z,-0.51
2018-02-20T21:12:59.818Z,-0.53
2018-02-20T21:15:28.221Z,-0.54
2018-02-20T21:17:56.607Z,-0.54
2018-02-20T21:20:25.020Z,-0.59
2018-02-20T21:22:53.470Z,-0.62
2018-02-20T21:25:22.636Z,-0.58
2018-02-20T21:27:51.022Z,-0.62
2018-02-20T21:30:20.206Z,-0.65
2018-02-20T21:32:48.650Z,-0.54
2018-02-20T21:35:17.011Z,-0.59
2018-02-20T21:37:45.420Z,-0.63
2018-02-20T21:40:13.842Z,-0.63
2018-02-20T21:42:42.983Z,-0.49
2018-02-20T21:45:11.399Z,-0.60
2018-02-20T21:47:39.791Z,-0.61
2018-02-20T21:50:08.941Z,-0.65
2018-02-20T21:52:37.338Z,-0.59
2018-02-20T21:55:05.866Z,-0.71
2018-02-20T21:57:34.250Z,-0.76
2018-02-20T22:00:02.670Z,-0.79
2018-02-20T22:02:31.065Z,-0.79
2018-02-20T22:04:59.443Z,-0.78
2018-02-20T22:07:27.859Z,-0.89
2018-02-20T22:09:56.249Z,-0.90
2018-02-20T22:12:24.733Z,-0.92
2018-02-20T22:14:53.127Z,-0.94
2018-02-20T22:17:21.534Z,-0.88
2018-02-20T22:19:49.945Z,-0.97
2018-02-20T22:22:18.333Z,-0.99
2018-02-20T22:24:46.704Z,-1.01
2018-02-20T22:27:15.912Z,-1.13
2018-02-20T22:29:44.297Z,-1.10
2018-02-20T22:32:12.700Z,-1.06
2018-02-20T22:34:41.090Z,-1.12
2018-02-20T22:37:09.494Z,-1.09
2018-02-20T22:39:37.892Z,-1.09
2018-02-20T22:42:07.133Z,-1.12
2018-02-20T22:44:35.616Z,-1.13
2018-02-20T22:47:04.050Z,-1.14
2018-02-20T22:49:33.206Z,-1.18
2018-02-20T22:52:01.591Z,-1.17
2018-02-20T22:54:29.990Z,-1.23
2018-02-20T22:56:58.379Z,-1.24
2018-02-20T22:59:27.608Z,-1.33
2018-02-20T23:01:56.015Z,-1.38
2018-02-20T23:04:24.458Z,-1.39
2018-02-20T23:06:52.864Z,-1.46
2018-02-20T23:09:21.332Z,-1.48
2018-02-20T23:11:49.703Z,-1.51
2018-02-20T23:14:18.075Z,-1.57
2018-02-20T23:16:46.710Z,-1.56
2018-02-20T23:19:15.089Z,-1.60
2018-02-20T23:21:43.481Z,-1.63
2018-02-20T23:24:11.922Z,-1.62
2018-02-20T23:26:40.341Z,-1.60
2018-02-20T23:29:08.776Z,-1.62
2018-02-20T23:31:37.184Z,-1.61
2018-02-20T23:34:05.566Z,-1.61
2018-02-20T23:36:33.980Z,-1.61
2018-02-20T23:39:02.517Z,-1.66
2018-02-20T23:41:30.945Z,-1.65
2018-02-20T23:43:59.344Z,-1.63
2018-02-20T23:46:27.768Z,-1.67
2018-02-20T23:48:56.151Z,-1.78
2018-02-20T23:51:29.980Z,-1.75
2018-02-20T23:53:59.149Z,-1.78
2018-02-20T23:56:27.519Z,-1.79
2018-02-20T23:58:55.936Z,-1.86
